sensor_id;sensor_type;location;lat;lon;timestamp;temperature;humidity
16521;DHT22;8373;48.110;11.522;2023-05-20T00:01:45;15.30;84.60
16521;DHT22;8373;48.110;11.522;2023-05-20T00:04:12;15.30;84.80
16521;DHT22;8373;48.110;11.522;2023-05-20T00:06:39;15.20;84.70
16521;DHT22;8373;48.110;11.522;2023-05-20T00:09:06;15.20;85.00
16521;DHT22;8373;48.110;11.522;2023-05-20T00:11:34;15.10;85.20
16521;DHT22;8373;48.110;11.522;2023-05-20T00:14:02;15.10;85.10
16521;DHT22;8373;48.110;11.522;2023-05-20T00:16:29;15.10;85.20
16521;DHT22;8373;48.110;11.522;2023-05-20T00:18:56;15.10;85.30
16521;DHT22;8373;48.110;11.522;2023-05-20T00:21:23;15.10;85.50
16521;DHT22;8373;48.110;11.522;2023-05-20T00:23:50;15.10;85.50
16521;DHT22;8373;48.110;11.522;2023-05-20T00:26:18;15.10;85.20
16521;DHT22;8373;48.110;11.522;2023-05-20T00:28:46;15.10;85.30
16521;DHT22;8373;48.110;11.522;2023-05-20T00:31:14;15.10;85.40
16521;DHT22;8373;48.110;11.522;2023-05-20T00:33:41;15.10;85.20
16521;DHT22;8373;48.110;11.522;2023-05-20T00:36:08;15.10;85.30
16521;DHT22;8373;48.110;11.522;2023-05-20T00:38:35;15.10;85.30
16521;DHT22;8373;48.110;11.522;2023-05-20T00:41:02;15.10;85.40
16521;DHT22;8373;48.110;11.522;2023-05-20T00:43:29;15.10;85.20
16521;DHT22;8373;48.110;11.522;2023-05-20T00:45:55;15.10;85.40
16521;DHT22;8373;48.110;11.522;2023-05-20T00:48:24;15.10;85.40
16521;DHT22;8373;48.110;11.522;2023-05-20T00:50:51;15.10;85.40
16521;DHT22;8373;48.110;11.522;2023-05-20T00:53:18;15.10;85.30
16521;DHT22;8373;48.110;11.522;2023-05-20T00:55:45;15.00;86.10
16521;DHT22;8373;48.110;11.522;2023-05-20T00:58:13;15.00;85.40
16521;DHT22;8373;48.110;11.522;2023-05-20T01:00:40;15.00;85.70
16521;DHT22;8373;48.110;11.522;2023-05-20T01:03:07;15.00;86.00
16521;DHT22;8373;48.110;11.522;2023-05-20T01:05:35;15.00;86.00
16521;DHT22;8373;48.110;11.522;2023-05-20T01:08:02;14.90;86.10
16521;DHT22;8373;48.110;11.522;2023-05-20T01:10:30;14.90;86.30
16521;DHT22;8373;48.110;11.522;2023-05-20T01:13:01;14.90;86.40
16521;DHT22;8373;48.110;11.522;2023-05-20T01:15:31;14.90;86.40
16521;DHT22;8373;48.110;11.522;2023-05-20T01:18:00;14.90;86.40
16521;DHT22;8373;48.110;11.522;2023-05-20T01:20:30;14.90;86.50
16521;DHT22;8373;48.110;11.522;2023-05-20T01:23:00;14.90;86.60
16521;DHT22;8373;48.110;11.522;2023-05-20T01:25:27;14.80;86.70
16521;DHT22;8373;48.110;11.522;2023-05-20T01:27:55;14.90;87.10
16521;DHT22;8373;48.110;11.522;2023-05-20T01:30:27;14.90;87.00
16521;DHT22;8373;48.110;11.522;2023-05-20T01:33:00;14.90;87.10
16521;DHT22;8373;48.110;11.522;2023-05-20T01:35:27;14.90;87.10
16521;DHT22;8373;48.110;11.522;2023-05-20T01:37:55;14.90;87.00
16521;DHT22;8373;48.110;11.522;2023-05-20T01:40:25;14.80;87.00
16521;DHT22;8373;48.110;11.522;2023-05-20T01:42:54;14.80;87.30
16521;DHT22;8373;48.110;11.522;2023-05-20T01:45:23;14.80;87.60
16521;DHT22;8373;48.110;11.522;2023-05-20T01:47:51;14.80;87.60
16521;DHT22;8373;48.110;11.522;2023-05-20T01:50:18;14.80;87.60
16521;DHT22;8373;48.110;11.522;2023-05-20T01:52:44;14.80;87.50
16521;DHT22;8373;48.110;11.522;2023-05-20T01:55:11;14.90;87.60
16521;DHT22;8373;48.110;11.522;2023-05-20T01:57:40;14.80;87.60
16521;DHT22;8373;48.110;11.522;2023-05-20T02:00:08;14.90;87.70
16521;DHT22;8373;48.110;11.522;2023-05-20T02:02:35;14.90;87.60
16521;DHT22;8373;48.110;11.522;2023-05-20T02:05:02;14.90;87.40
16521;DHT22;8373;48.110;11.522;2023-05-20T02:07:29;14.90;87.50
16521;DHT22;8373;48.110;11.522;2023-05-20T02:09:56;14.80;87.50
16521;DHT22;8373;48.110;11.522;2023-05-20T02:12:23;14.90;87.90
16521;DHT22;8373;48.110;11.522;2023-05-20T02:14:51;14.90;87.90
16521;DHT22;8373;48.110;11.522;2023-05-20T02:17:19;14.90;87.80
16521;DHT22;8373;48.110;11.522;2023-05-20T02:19:46;14.90;87.90
16521;DHT22;8373;48.110;11.522;2023-05-20T02:22:14;14.90;88.00
16521;DHT22;8373;48.110;11.522;2023-05-20T02:24:41;14.90;88.30
16521;DHT22;8373;48.110;11.522;2023-05-20T02:27:08;15.00;88.30
16521;DHT22;8373;48.110;11.522;2023-05-20T02:29:36;14.90;88.80
16521;DHT22;8373;48.110;11.522;2023-05-20T02:32:05;14.90;88.20
16521;DHT22;8373;48.110;11.522;2023-05-20T02:34:32;14.90;88.10
16521;DHT22;8373;48.110;11.522;2023-05-20T02:36:59;14.90;88.30
16521;DHT22;8373;48.110;11.522;2023-05-20T02:39:26;14.90;88.30
16521;DHT22;8373;48.110;11.522;2023-05-20T02:41:54;14.90;88.50
16521;DHT22;8373;48.110;11.522;2023-05-20T02:44:21;14.90;88.30
16521;DHT22;8373;48.110;11.522;2023-05-20T02:46:48;14.90;88.50
16521;DHT22;8373;48.110;11.522;2023-05-20T02:49:16;14.90;88.60
16521;DHT22;8373;48.110;11.522;2023-05-20T02:51:43;14.90;88.60
16521;DHT22;8373;48.110;11.522;2023-05-20T02:54:10;14.80;88.70
16521;DHT22;8373;48.110;11.522;2023-05-20T02:56:37;14.80;89.00
16521;DHT22;8373;48.110;11.522;2023-05-20T02:59:04;14.70;89.20
16521;DHT22;8373;48.110;11.522;2023-05-20T03:01:31;14.80;89.60
16521;DHT22;8373;48.110;11.522;2023-05-20T03:04:00;14.80;89.60
16521;DHT22;8373;48.110;11.522;2023-05-20T03:06:29;14.80;90.10
16521;DHT22;8373;48.110;11.522;2023-05-20T03:08:56;14.80;89.50
16521;DHT22;8373;48.110;11.522;2023-05-20T03:11:23;14.70;89.70
16521;DHT22;8373;48.110;11.522;2023-05-20T03:13:51;14.70;89.90
16521;DHT22;8373;48.110;11.522;2023-05-20T03:16:18;14.70;90.00
16521;DHT22;8373;48.110;11.522;2023-05-20T03:18:45;14.70;90.10
16521;DHT22;8373;48.110;11.522;2023-05-20T03:21:12;14.70;90.20
16521;DHT22;8373;48.110;11.522;2023-05-20T03:23:40;14.60;90.20
16521;DHT22;8373;48.110;11.522;2023-05-20T03:26:07;14.60;90.20
16521;DHT22;8373;48.110;11.522;2023-05-20T03:28:35;14.60;90.30
16521;DHT22;8373;48.110;11.522;2023-05-20T03:31:02;14.60;90.30
16521;DHT22;8373;48.110;11.522;2023-05-20T03:33:29;14.60;90.30
16521;DHT22;8373;48.110;11.522;2023-05-20T03:35:56;14.60;90.50
16521;DHT22;8373;48.110;11.522;2023-05-20T03:38:23;14.60;90.60
16521;DHT22;8373;48.110;11.522;2023-05-20T03:40:51;14.70;90.60
16521;DHT22;8373;48.110;11.522;2023-05-20T03:43:18;14.70;90.60
16521;DHT22;8373;48.110;11.522;2023-05-20T03:45:45;14.70;90.60
16521;DHT22;8373;48.110;11.522;2023-05-20T03:48:12;14.70;90.60
16521;DHT22;8373;48.110;11.522;2023-05-20T03:50:39;14.80;90.60
16521;DHT22;8373;48.110;11.522;2023-05-20T03:53:06;14.80;90.50
16521;DHT22;8373;48.110;11.522;2023-05-20T03:55:32;14.70;90.50
16521;DHT22;8373;48.110;11.522;2023-05-20T03:58:01;14.80;90.60
16521;DHT22;8373;48.110;11.522;2023-05-20T04:00:28;14.80;90.70
16521;DHT22;8373;48.110;11.522;2023-05-20T04:02:56;14.80;90.60
16521;DHT22;8373;48.110;11.522;2023-05-20T04:05:23;14.70;90.60
16521;DHT22;8373;48.110;11.522;2023-05-20T04:07:51;14.70;90.70
16521;DHT22;8373;48.110;11.522;2023-05-20T04:10:18;14.70;90.70
16521;DHT22;8373;48.110;11.522;2023-05-20T04:12:46;14.70;90.80
16521;DHT22;8373;48.110;11.522;2023-05-20T04:15:14;14.70;91.00
16521;DHT22;8373;48.110;11.522;2023-05-20T04:17:41;14.70;91.00
16521;DHT22;8373;48.110;11.522;2023-05-20T04:20:10;14.70;91.00
16521;DHT22;8373;48.110;11.522;2023-05-20T04:22:37;14.70;91.10
16521;DHT22;8373;48.110;11.522;2023-05-20T04:25:05;14.60;91.10
16521;DHT22;8373;48.110;11.522;2023-05-20T04:27:33;14.60;91.20
16521;DHT22;8373;48.110;11.522;2023-05-20T04:30:00;14.60;91.30
16521;DHT22;8373;48.110;11.522;2023-05-20T04:32:29;14.60;91.40
16521;DHT22;8373;48.110;11.522;2023-05-20T04:34:56;14.60;91.40
16521;DHT22;8373;48.110;11.522;2023-05-20T04:37:24;14.60;91.40
16521;DHT22;8373;48.110;11.522;2023-05-20T04:39:51;14.60;91.40
16521;DHT22;8373;48.110;11.522;2023-05-20T04:42:18;14.60;91.40
16521;DHT22;8373;48.110;11.522;2023-05-20T04:44:46;14.60;91.50
16521;DHT22;8373;48.110;11.522;2023-05-20T04:47:14;14.60;91.50
16521;DHT22;8373;48.110;11.522;2023-05-20T04:49:42;14.60;91.50
16521;DHT22;8373;48.110;11.522;2023-05-20T04:52:10;14.60;91.60
16521;DHT22;8373;48.110;11.522;2023-05-20T04:54:37;14.60;91.70
16521;DHT22;8373;48.110;11.522;2023-05-20T04:57:04;14.60;91.70
16521;DHT22;8373;48.110;11.522;2023-05-20T04:59:32;14.60;91.70
16521;DHT22;8373;48.110;11.522;2023-05-20T05:01:58;14.60;91.70
16521;DHT22;8373;48.110;11.522;2023-05-20T05:04:25;14.70;91.60
16521;DHT22;8373;48.110;11.522;2023-05-20T05:06:54;14.70;91.50
16521;DHT22;8373;48.110;11.522;2023-05-20T05:09:21;14.70;91.40
16521;DHT22;8373;48.110;11.522;2023-05-20T05:11:48;14.60;91.30
16521;DHT22;8373;48.110;11.522;2023-05-20T05:14:15;14.60;91.30
16521;DHT22;8373;48.110;11.522;2023-05-20T05:16:42;14.50;91.40
16521;DHT22;8373;48.110;11.522;2023-05-20T05:19:09;14.60;91.50
16521;DHT22;8373;48.110;11.522;2023-05-20T05:21:36;14.60;91.50
16521;DHT22;8373;48.110;11.522;2023-05-20T05:24:05;14.60;91.60
16521;DHT22;8373;48.110;11.522;2023-05-20T05:26:32;14.60;91.60
16521;DHT22;8373;48.110;11.522;2023-05-20T05:28:59;14.60;91.60
16521;DHT22;8373;48.110;11.522;2023-05-20T05:31:26;14.70;91.60
16521;DHT22;8373;48.110;11.522;2023-05-20T05:33:53;14.70;91.50
16521;DHT22;8373;48.110;11.522;2023-05-20T05:36:19;14.70;91.50
16521;DHT22;8373;48.110;11.522;2023-05-20T05:38:46;14.80;91.40
16521;DHT22;8373;48.110;11.522;2023-05-20T05:41:15;14.80;91.30
16521;DHT22;8373;48.110;11.522;2023-05-20T05:43:42;14.80;91.20
16521;DHT22;8373;48.110;11.522;2023-05-20T05:46:09;14.90;91.20
16521;DHT22;8373;48.110;11.522;2023-05-20T05:48:36;14.80;91.00
16521;DHT22;8373;48.110;11.522;2023-05-20T05:51:03;14.90;91.00
16521;DHT22;8373;48.110;11.522;2023-05-20T05:53:30;14.90;91.00
16521;DHT22;8373;48.110;11.522;2023-05-20T05:55:57;14.90;90.80
16521;DHT22;8373;48.110;11.522;2023-05-20T05:58:25;14.90;90.70
16521;DHT22;8373;48.110;11.522;2023-05-20T06:00:52;14.90;90.60
16521;DHT22;8373;48.110;11.522;2023-05-20T06:03:19;14.90;90.40
16521;DHT22;8373;48.110;11.522;2023-05-20T06:05:46;15.00;90.40
16521;DHT22;8373;48.110;11.522;2023-05-20T06:08:13;15.10;90.40
16521;DHT22;8373;48.110;11.522;2023-05-20T06:10:40;15.20;90.40
16521;DHT22;8373;48.110;11.522;2023-05-20T06:13:07;15.20;90.30
16521;DHT22;8373;48.110;11.522;2023-05-20T06:15:35;15.30;90.00
16521;DHT22;8373;48.110;11.522;2023-05-20T06:18:02;15.40;89.90
16521;DHT22;8373;48.110;11.522;2023-05-20T06:20:29;15.40;89.10
16521;DHT22;8373;48.110;11.522;2023-05-20T06:22:56;15.40;88.90
16521;DHT22;8373;48.110;11.522;2023-05-20T06:25:24;15.50;88.90
16521;DHT22;8373;48.110;11.522;2023-05-20T06:27:51;15.50;88.50
16521;DHT22;8373;48.110;11.522;2023-05-20T06:30:18;15.60;88.00
16521;DHT22;8373;48.110;11.522;2023-05-20T06:32:46;15.70;87.80
16521;DHT22;8373;48.110;11.522;2023-05-20T06:35:13;15.80;87.80
16521;DHT22;8373;48.110;11.522;2023-05-20T06:37:40;15.80;87.10
16521;DHT22;8373;48.110;11.522;2023-05-20T06:40:08;15.80;87.10
16521;DHT22;8373;48.110;11.522;2023-05-20T06:42:36;15.90;87.40
16521;DHT22;8373;48.110;11.522;2023-05-20T06:45:03;15.90;86.40
16521;DHT22;8373;48.110;11.522;2023-05-20T06:47:30;16.00;86.50
16521;DHT22;8373;48.110;11.522;2023-05-20T06:49:58;16.00;86.50
16521;DHT22;8373;48.110;11.522;2023-05-20T06:52:25;16.00;86.20
16521;DHT22;8373;48.110;11.522;2023-05-20T06:54:52;16.00;85.80
16521;DHT22;8373;48.110;11.522;2023-05-20T06:57:19;15.90;85.80
16521;DHT22;8373;48.110;11.522;2023-05-20T06:59:47;15.90;86.30
16521;DHT22;8373;48.110;11.522;2023-05-20T07:02:14;15.80;86.30
16521;DHT22;8373;48.110;11.522;2023-05-20T07:04:41;15.80;86.50
16521;DHT22;8373;48.110;11.522;2023-05-20T07:07:09;15.90;86.90
16521;DHT22;8373;48.110;11.522;2023-05-20T07:09:36;16.00;87.20
16521;DHT22;8373;48.110;11.522;2023-05-20T07:12:03;16.10;86.70
16521;DHT22;8373;48.110;11.522;2023-05-20T07:14:30;16.20;85.90
16521;DHT22;8373;48.110;11.522;2023-05-20T07:16:57;16.10;85.20
16521;DHT22;8373;48.110;11.522;2023-05-20T07:19:24;16.00;85.20
16521;DHT22;8373;48.110;11.522;2023-05-20T07:21:51;16.10;86.30
16521;DHT22;8373;48.110;11.522;2023-05-20T07:24:19;16.20;86.40
16521;DHT22;8373;48.110;11.522;2023-05-20T07:26:46;16.30;85.80
16521;DHT22;8373;48.110;11.522;2023-05-20T07:29:13;16.40;85.00
16521;DHT22;8373;48.110;11.522;2023-05-20T07:31:40;16.50;84.60
16521;DHT22;8373;48.110;11.522;2023-05-20T07:34:07;16.50;85.70
16521;DHT22;8373;48.110;11.522;2023-05-20T07:36:34;16.60;87.80
16521;DHT22;8373;48.110;11.522;2023-05-20T07:39:02;16.60;85.60
16521;DHT22;8373;48.110;11.522;2023-05-20T07:41:30;16.60;86.20
16521;DHT22;8373;48.110;11.522;2023-05-20T07:43:57;16.60;86.50
16521;DHT22;8373;48.110;11.522;2023-05-20T07:46:24;16.60;85.90
16521;DHT22;8373;48.110;11.522;2023-05-20T07:48:51;16.70;86.40
16521;DHT22;8373;48.110;11.522;2023-05-20T07:51:18;16.70;86.40
16521;DHT22;8373;48.110;11.522;2023-05-20T07:53:45;16.80;86.10
16521;DHT22;8373;48.110;11.522;2023-05-20T07:56:12;16.90;85.70
16521;DHT22;8373;48.110;11.522;2023-05-20T07:58:41;17.10;85.90
16521;DHT22;8373;48.110;11.522;2023-05-20T08:01:08;17.30;84.70
16521;DHT22;8373;48.110;11.522;2023-05-20T08:03:36;17.60;84.90
16521;DHT22;8373;48.110;11.522;2023-05-20T08:06:03;17.90;84.10
16521;DHT22;8373;48.110;11.522;2023-05-20T08:08:30;18.20;83.60
16521;DHT22;8373;48.110;11.522;2023-05-20T08:10:57;18.40;81.60
16521;DHT22;8373;48.110;11.522;2023-05-20T08:13:26;18.50;81.10
16521;DHT22;8373;48.110;11.522;2023-05-20T08:15:54;18.70;80.20
16521;DHT22;8373;48.110;11.522;2023-05-20T08:18:21;18.70;79.70
16521;DHT22;8373;48.110;11.522;2023-05-20T08:20:48;18.80;79.40
16521;DHT22;8373;48.110;11.522;2023-05-20T08:23:15;18.90;79.10
16521;DHT22;8373;48.110;11.522;2023-05-20T08:25:42;19.10;78.50
16521;DHT22;8373;48.110;11.522;2023-05-20T08:28:11;19.40;78.00
16521;DHT22;8373;48.110;11.522;2023-05-20T08:30:38;19.70;76.60
16521;DHT22;8373;48.110;11.522;2023-05-20T08:33:07;19.90;76.10
16521;DHT22;8373;48.110;11.522;2023-05-20T08:35:34;20.20;74.70
16521;DHT22;8373;48.110;11.522;2023-05-20T08:38:03;20.40;73.00
16521;DHT22;8373;48.110;11.522;2023-05-20T08:40:31;20.60;71.90
16521;DHT22;8373;48.110;11.522;2023-05-20T08:43:00;20.60;71.50
16521;DHT22;8373;48.110;11.522;2023-05-20T08:45:31;20.60;70.70
16521;DHT22;8373;48.110;11.522;2023-05-20T08:47:58;20.60;70.40
16521;DHT22;8373;48.110;11.522;2023-05-20T08:50:27;20.50;69.90
16521;DHT22;8373;48.110;11.522;2023-05-20T08:52:54;20.50;70.20
16521;DHT22;8373;48.110;11.522;2023-05-20T08:55:24;20.50;70.60
16521;DHT22;8373;48.110;11.522;2023-05-20T08:57:51;20.60;70.60
16521;DHT22;8373;48.110;11.522;2023-05-20T09:00:19;20.60;70.10
16521;DHT22;8373;48.110;11.522;2023-05-20T09:02:48;20.70;69.60
16521;DHT22;8373;48.110;11.522;2023-05-20T09:05:17;20.70;68.50
16521;DHT22;8373;48.110;11.522;2023-05-20T09:07:45;20.70;68.50
16521;DHT22;8373;48.110;11.522;2023-05-20T09:10:12;20.70;67.90
16521;DHT22;8373;48.110;11.522;2023-05-20T09:12:39;20.70;67.00
16521;DHT22;8373;48.110;11.522;2023-05-20T09:15:07;20.70;67.10
16521;DHT22;8373;48.110;11.522;2023-05-20T09:17:34;20.60;67.00
16521;DHT22;8373;48.110;11.522;2023-05-20T09:20:05;20.50;66.80
16521;DHT22;8373;48.110;11.522;2023-05-20T09:22:33;20.50;67.30
16521;DHT22;8373;48.110;11.522;2023-05-20T09:25:01;20.50;67.80
16521;DHT22;8373;48.110;11.522;2023-05-20T09:27:28;20.50;68.30
16521;DHT22;8373;48.110;11.522;2023-05-20T09:29:55;20.50;68.40
16521;DHT22;8373;48.110;11.522;2023-05-20T09:32:22;20.40;68.30
16521;DHT22;8373;48.110;11.522;2023-05-20T09:34:52;20.40;68.30
16521;DHT22;8373;48.110;11.522;2023-05-20T09:37:21;20.40;67.80
16521;DHT22;8373;48.110;11.522;2023-05-20T09:39:54;20.30;67.30
16521;DHT22;8373;48.110;11.522;2023-05-20T09:42:27;20.30;66.80
16521;DHT22;8373;48.110;11.522;2023-05-20T09:44:57;20.10;65.50
16521;DHT22;8373;48.110;11.522;2023-05-20T09:47:25;20.00;66.20
16521;DHT22;8373;48.110;11.522;2023-05-20T09:49:53;20.10;67.20
16521;DHT22;8373;48.110;11.522;2023-05-20T09:52:20;20.10;67.70
16521;DHT22;8373;48.110;11.522;2023-05-20T09:54:48;20.30;67.50
16521;DHT22;8373;48.110;11.522;2023-05-20T09:57:16;20.40;67.30
16521;DHT22;8373;48.110;11.522;2023-05-20T09:59:46;20.50;69.20
16521;DHT22;8373;48.110;11.522;2023-05-20T10:02:13;20.60;69.50
16521;DHT22;8373;48.110;11.522;2023-05-20T10:04:43;20.70;68.10
16521;DHT22;8373;48.110;11.522;2023-05-20T10:10:18;20.80;66.70
16521;DHT22;8373;48.110;11.522;2023-05-20T10:12:57;20.70;62.80
16521;DHT22;8373;48.110;11.522;2023-05-20T10:15:35;20.60;63.70
16521;DHT22;8373;48.110;11.522;2023-05-20T10:18:13;20.60;64.00
16521;DHT22;8373;48.110;11.522;2023-05-20T10:20:45;20.60;64.30
16521;DHT22;8373;48.110;11.522;2023-05-20T10:23:20;20.60;64.10
16521;DHT22;8373;48.110;11.522;2023-05-20T10:25:52;20.70;64.60
16521;DHT22;8373;48.110;11.522;2023-05-20T10:28:27;20.80;64.50
16521;DHT22;8373;48.110;11.522;2023-05-20T10:30:56;20.80;64.30
16521;DHT22;8373;48.110;11.522;2023-05-20T10:33:25;20.90;64.40
16521;DHT22;8373;48.110;11.522;2023-05-20T10:35:53;21.00;64.40
16521;DHT22;8373;48.110;11.522;2023-05-20T10:38:20;21.20;64.80
16521;DHT22;8373;48.110;11.522;2023-05-20T10:40:47;21.40;64.60
16521;DHT22;8373;48.110;11.522;2023-05-20T10:43:16;21.60;63.50
16521;DHT22;8373;48.110;11.522;2023-05-20T10:45:52;21.80;63.00
16521;DHT22;8373;48.110;11.522;2023-05-20T10:48:23;21.90;62.40
16521;DHT22;8373;48.110;11.522;2023-05-20T10:50:52;22.00;62.30
16521;DHT22;8373;48.110;11.522;2023-05-20T10:53:21;22.10;62.60
16521;DHT22;8373;48.110;11.522;2023-05-20T10:55:49;22.20;61.40
16521;DHT22;8373;48.110;11.522;2023-05-20T10:58:17;22.30;61.00
16521;DHT22;8373;48.110;11.522;2023-05-20T11:00:46;22.30;58.30
16521;DHT22;8373;48.110;11.522;2023-05-20T11:03:14;22.40;58.10
16521;DHT22;8373;48.110;11.522;2023-05-20T11:05:45;22.40;57.40
16521;DHT22;8373;48.110;11.522;2023-05-20T11:08:12;22.50;57.00
16521;DHT22;8373;48.110;11.522;2023-05-20T11:10:41;22.60;56.80
16521;DHT22;8373;48.110;11.522;2023-05-20T11:13:11;22.60;56.20
16521;DHT22;8373;48.110;11.522;2023-05-20T11:15:40;22.60;55.90
16521;DHT22;8373;48.110;11.522;2023-05-20T11:18:10;22.60;56.80
16521;DHT22;8373;48.110;11.522;2023-05-20T11:20:39;22.70;55.50
16521;DHT22;8373;48.110;11.522;2023-05-20T11:23:11;22.70;55.30
16521;DHT22;8373;48.110;11.522;2023-05-20T11:25:38;22.80;54.90
16521;DHT22;8373;48.110;11.522;2023-05-20T11:28:08;23.00;55.20
16521;DHT22;8373;48.110;11.522;2023-05-20T11:30:35;23.10;55.30
16521;DHT22;8373;48.110;11.522;2023-05-20T11:33:03;23.10;55.20
16521;DHT22;8373;48.110;11.522;2023-05-20T11:35:31;23.20;55.90
16521;DHT22;8373;48.110;11.522;2023-05-20T11:38:01;23.30;55.10
16521;DHT22;8373;48.110;11.522;2023-05-20T11:40:30;23.40;55.10
16521;DHT22;8373;48.110;11.522;2023-05-20T11:42:58;23.40;54.90
16521;DHT22;8373;48.110;11.522;2023-05-20T11:45:26;23.50;55.00
16521;DHT22;8373;48.110;11.522;2023-05-20T11:48:00;23.50;54.80
16521;DHT22;8373;48.110;11.522;2023-05-20T11:50:28;23.60;55.50
16521;DHT22;8373;48.110;11.522;2023-05-20T11:52:57;23.60;55.50
16521;DHT22;8373;48.110;11.522;2023-05-20T11:55:24;23.70;55.60
16521;DHT22;8373;48.110;11.522;2023-05-20T11:57:53;23.70;56.00
16521;DHT22;8373;48.110;11.522;2023-05-20T12:00:21;23.80;56.20
16521;DHT22;8373;48.110;11.522;2023-05-20T12:02:48;24.00;55.10
16521;DHT22;8373;48.110;11.522;2023-05-20T12:05:15;24.20;53.70
16521;DHT22;8373;48.110;11.522;2023-05-20T12:07:42;24.40;52.50
16521;DHT22;8373;48.110;11.522;2023-05-20T12:10:10;24.60;51.40
16521;DHT22;8373;48.110;11.522;2023-05-20T12:12:38;24.80;51.40
16521;DHT22;8373;48.110;11.522;2023-05-20T12:15:07;25.00;51.20
16521;DHT22;8373;48.110;11.522;2023-05-20T12:17:44;25.00;49.50
16521;DHT22;8373;48.110;11.522;2023-05-20T12:20:13;25.10;49.60
16521;DHT22;8373;48.110;11.522;2023-05-20T12:22:41;25.10;50.30
16521;DHT22;8373;48.110;11.522;2023-05-20T12:25:10;25.10;49.20
16521;DHT22;8373;48.110;11.522;2023-05-20T12:27:37;25.10;49.00
16521;DHT22;8373;48.110;11.522;2023-05-20T12:30:07;25.10;50.30
16521;DHT22;8373;48.110;11.522;2023-05-20T12:32:36;25.00;50.30
16521;DHT22;8373;48.110;11.522;2023-05-20T12:35:04;25.00;50.10
16521;DHT22;8373;48.110;11.522;2023-05-20T12:37:31;24.90;50.10
16521;DHT22;8373;48.110;11.522;2023-05-20T12:39:58;24.90;50.30
16521;DHT22;8373;48.110;11.522;2023-05-20T12:42:25;24.80;48.90
16521;DHT22;8373;48.110;11.522;2023-05-20T12:44:52;24.70;48.10
16521;DHT22;8373;48.110;11.522;2023-05-20T12:47:21;24.80;47.80
16521;DHT22;8373;48.110;11.522;2023-05-20T12:49:48;24.80;48.30
16521;DHT22;8373;48.110;11.522;2023-05-20T12:52:15;24.80;48.00
16521;DHT22;8373;48.110;11.522;2023-05-20T12:54:42;24.90;47.70
16521;DHT22;8373;48.110;11.522;2023-05-20T12:57:09;24.90;47.70
16521;DHT22;8373;48.110;11.522;2023-05-20T12:59:36;24.90;47.90
16521;DHT22;8373;48.110;11.522;2023-05-20T13:02:03;24.80;48.00
16521;DHT22;8373;48.110;11.522;2023-05-20T13:04:31;24.80;48.50
16521;DHT22;8373;48.110;11.522;2023-05-20T13:06:58;24.80;48.50
16521;DHT22;8373;48.110;11.522;2023-05-20T13:09:25;24.80;47.50
16521;DHT22;8373;48.110;11.522;2023-05-20T13:11:52;24.80;47.10
16521;DHT22;8373;48.110;11.522;2023-05-20T13:14:19;24.80;46.90
16521;DHT22;8373;48.110;11.522;2023-05-20T13:16:48;24.90;47.20
16521;DHT22;8373;48.110;11.522;2023-05-20T13:19:18;24.90;47.80
16521;DHT22;8373;48.110;11.522;2023-05-20T13:21:48;25.00;48.70
16521;DHT22;8373;48.110;11.522;2023-05-20T13:24:14;25.10;48.90
16521;DHT22;8373;48.110;11.522;2023-05-20T13:26:41;25.10;49.30
16521;DHT22;8373;48.110;11.522;2023-05-20T13:29:10;25.10;49.70
16521;DHT22;8373;48.110;11.522;2023-05-20T13:31:37;25.10;50.00
16521;DHT22;8373;48.110;11.522;2023-05-20T13:34:04;25.10;50.70
16521;DHT22;8373;48.110;11.522;2023-05-20T13:36:32;25.10;50.70
16521;DHT22;8373;48.110;11.522;2023-05-20T13:39:00;25.00;50.70
16521;DHT22;8373;48.110;11.522;2023-05-20T13:41:27;24.90;50.40
16521;DHT22;8373;48.110;11.522;2023-05-20T13:43:55;24.80;50.90
16521;DHT22;8373;48.110;11.522;2023-05-20T13:46:22;24.70;51.40
16521;DHT22;8373;48.110;11.522;2023-05-20T13:48:49;24.60;51.10
16521;DHT22;8373;48.110;11.522;2023-05-20T13:51:16;24.60;51.10
16521;DHT22;8373;48.110;11.522;2023-05-20T13:53:43;24.40;51.60
16521;DHT22;8373;48.110;11.522;2023-05-20T13:56:11;24.30;52.60
16521;DHT22;8373;48.110;11.522;2023-05-20T13:58:38;24.20;52.10
16521;DHT22;8373;48.110;11.522;2023-05-20T14:01:06;24.00;52.70
16521;DHT22;8373;48.110;11.522;2023-05-20T14:03:33;23.90;52.80
16521;DHT22;8373;48.110;11.522;2023-05-20T14:06:01;23.90;53.10
16521;DHT22;8373;48.110;11.522;2023-05-20T14:08:28;23.80;53.00
16521;DHT22;8373;48.110;11.522;2023-05-20T14:10:55;23.70;53.20
16521;DHT22;8373;48.110;11.522;2023-05-20T14:13:24;23.70;53.60
16521;DHT22;8373;48.110;11.522;2023-05-20T14:15:51;23.60;52.90
16521;DHT22;8373;48.110;11.522;2023-05-20T14:18:19;23.60;52.60
16521;DHT22;8373;48.110;11.522;2023-05-20T14:20:46;23.70;53.10
16521;DHT22;8373;48.110;11.522;2023-05-20T14:23:13;23.70;53.50
16521;DHT22;8373;48.110;11.522;2023-05-20T14:25:40;23.70;53.70
16521;DHT22;8373;48.110;11.522;2023-05-20T14:28:07;23.60;52.90
16521;DHT22;8373;48.110;11.522;2023-05-20T14:30:36;23.60;52.40
16521;DHT22;8373;48.110;11.522;2023-05-20T14:33:03;23.50;52.90
16521;DHT22;8373;48.110;11.522;2023-05-20T14:35:30;23.50;52.70
16521;DHT22;8373;48.110;11.522;2023-05-20T14:37:57;23.50;52.50
16521;DHT22;8373;48.110;11.522;2023-05-20T14:40:24;23.40;52.20
16521;DHT22;8373;48.110;11.522;2023-05-20T14:42:52;23.40;51.80
16521;DHT22;8373;48.110;11.522;2023-05-20T14:45:19;23.40;51.80
16521;DHT22;8373;48.110;11.522;2023-05-20T14:47:47;23.40;52.40
16521;DHT22;8373;48.110;11.522;2023-05-20T14:50:14;23.40;52.50
16521;DHT22;8373;48.110;11.522;2023-05-20T14:52:41;23.40;52.40
16521;DHT22;8373;48.110;11.522;2023-05-20T14:55:08;23.40;52.20
16521;DHT22;8373;48.110;11.522;2023-05-20T14:57:35;23.40;52.70
16521;DHT22;8373;48.110;11.522;2023-05-20T15:00:03;23.40;52.90
16521;DHT22;8373;48.110;11.522;2023-05-20T15:02:30;23.40;53.10
16521;DHT22;8373;48.110;11.522;2023-05-20T15:04:58;23.40;53.00
16521;DHT22;8373;48.110;11.522;2023-05-20T15:07:25;23.40;52.90
16521;DHT22;8373;48.110;11.522;2023-05-20T15:09:52;23.30;53.40
16521;DHT22;8373;48.110;11.522;2023-05-20T15:12:19;23.30;53.70
16521;DHT22;8373;48.110;11.522;2023-05-20T15:14:46;23.30;54.20
16521;DHT22;8373;48.110;11.522;2023-05-20T15:17:13;23.30;55.10
16521;DHT22;8373;48.110;11.522;2023-05-20T15:19:40;23.30;55.80
16521;DHT22;8373;48.110;11.522;2023-05-20T15:22:08;23.30;56.70
16521;DHT22;8373;48.110;11.522;2023-05-20T15:24:35;23.30;55.90
16521;DHT22;8373;48.110;11.522;2023-05-20T15:27:03;23.20;55.70
16521;DHT22;8373;48.110;11.522;2023-05-20T15:29:30;23.20;54.20
16521;DHT22;8373;48.110;11.522;2023-05-20T15:31:57;23.20;54.10
16521;DHT22;8373;48.110;11.522;2023-05-20T15:34:24;23.10;52.40
16521;DHT22;8373;48.110;11.522;2023-05-20T15:36:51;23.10;53.00